createdAt,value
2022-10-31T00:01:28.563Z,94.40
2022-10-31T00:03:56.547Z,94.30
2022-10-31T00:06:24.920Z,94.30
2022-10-31T00:08:55.931Z,94.30
2022-10-31T00:11:24.227Z,94.30
2022-10-31T00:13:53.885Z,94.40
2022-10-31T00:16:23.892Z,94.40
2022-10-31T00:18:52.632Z,94.30
2022-10-31T00:21:20.979Z,94.30
2022-10-31T00:23:48.946Z,94.40
2022-10-31T00:26:17.141Z,94.40
2022-10-31T00:28:45.304Z,94.50
2022-10-31T00:31:15.344Z,94.60
2022-10-31T00:33:43.819Z,94.60
2022-10-31T00:36:14.525Z,94.70
2022-10-31T00:38:42.565Z,94.80
2022-10-31T00:41:10.812Z,94.80
2022-10-31T00:43:38.775Z,94.90
2022-10-31T00:46:06.872Z,95.00
2022-10-31T00:48:36.089Z,95.00
2022-10-31T00:51:04.085Z,94.80
2022-10-31T00:53:31.972Z,95.00
2022-10-31T00:55:59.822Z,95.10
2022-10-31T00:58:27.697Z,95.10
2022-10-31T01:00:56.891Z,95.10
2022-10-31T01:03:26.196Z,95.10
2022-10-31T01:06:00.138Z,95.20
2022-10-31T01:08:28.437Z,95.20
2022-10-31T01:11:08.598Z,95.20
2022-10-31T01:13:36.876Z,95.20
2022-10-31T01:16:07.354Z,95.20
2022-10-31T01:18:35.706Z,95.30
2022-10-31T01:21:07.310Z,95.60
2022-10-31T01:23:35.486Z,95.40
2022-10-31T01:26:09.393Z,95.30
2022-10-31T01:28:39.711Z,95.40
2022-10-31T01:31:09.849Z,94.90
2022-10-31T01:33:38.737Z,95.50
2022-10-31T01:36:16.571Z,95.70
2022-10-31T01:38:44.854Z,95.90
2022-10-31T01:41:14.922Z,95.90
2022-10-31T01:43:52.365Z,95.80
2022-10-31T01:46:23.966Z,95.60
2022-10-31T01:48:53.456Z,95.60
2022-10-31T01:51:27.814Z,95.60
2022-10-31T01:53:59.176Z,95.60
2022-10-31T01:56:27.560Z,95.60
2022-10-31T01:58:58.538Z,95.60
2022-10-31T02:01:26.879Z,95.50
2022-10-31T02:03:54.818Z,95.90
2022-10-31T02:06:33.861Z,95.60
2022-10-31T02:09:03.858Z,95.60
2022-10-31T02:11:33.251Z,95.60
2022-10-31T02:14:03.437Z,95.50
2022-10-31T02:16:31.449Z,95.70
2022-10-31T02:18:59.428Z,96.10
2022-10-31T02:21:36.726Z,95.40
2022-10-31T02:24:34.712Z,95.80
2022-10-31T02:27:19.029Z,95.80
2022-10-31T02:30:11.715Z,95.90
2022-10-31T02:32:57.917Z,96.00
2022-10-31T02:35:42.848Z,96.00
2022-10-31T02:38:21.008Z,96.00
2022-10-31T02:40:58.240Z,95.90
2022-10-31T02:43:33.106Z,95.90
2022-10-31T02:46:09.267Z,95.80
2022-10-31T02:48:42.628Z,95.80
2022-10-31T02:51:12.014Z,95.00
2022-10-31T02:53:40.531Z,94.40
2022-10-31T02:56:13.123Z,95.30
2022-10-31T02:58:45.914Z,96.00
2022-10-31T03:01:52.718Z,96.30
2022-10-31T03:04:50.404Z,96.10
2022-10-31T03:07:25.935Z,96.00
2022-10-31T03:10:02.359Z,96.00
2022-10-31T03:12:36.076Z,95.60
2022-10-31T03:15:15.299Z,95.70
2022-10-31T03:17:54.787Z,95.90
2022-10-31T03:20:28.168Z,96.00
2022-10-31T03:22:58.696Z,96.10
2022-10-31T03:25:27.958Z,96.00
2022-10-31T03:27:56.912Z,95.40
2022-10-31T03:30:25.031Z,95.70
2022-10-31T03:32:55.443Z,95.70
2022-10-31T03:35:27.713Z,95.40
2022-10-31T03:37:57.144Z,95.70
2022-10-31T03:40:28.973Z,95.90
2022-10-31T03:43:02.916Z,96.00
2022-10-31T03:45:32.755Z,96.10
2022-10-31T03:48:02.105Z,96.00
2022-10-31T03:50:41.079Z,96.00
2022-10-31T03:53:15.391Z,95.90
2022-10-31T03:55:51.362Z,94.50
2022-10-31T03:58:23.136Z,94.30
2022-10-31T04:00:54.041Z,94.00
2022-10-31T04:03:25.256Z,95.00
2022-10-31T04:05:57.221Z,95.90
2022-10-31T04:08:29.970Z,96.10
2022-10-31T04:10:59.672Z,96.20
2022-10-31T04:13:31.904Z,97.00
2022-10-31T04:16:00.005Z,96.90
2022-10-31T04:18:28.442Z,96.80
2022-10-31T04:21:04.669Z,96.70
2022-10-31T04:23:33.307Z,96.60
2022-10-31T04:26:01.235Z,96.60
2022-10-31T04:28:29.279Z,96.40
2022-10-31T04:30:57.204Z,96.50
2022-10-31T04:33:25.033Z,96.50
2022-10-31T04:35:52.913Z,96.50
2022-10-31T04:38:22.151Z,95.90
2022-10-31T04:40:50.019Z,95.90
2022-10-31T04:43:17.940Z,95.00
2022-10-31T04:45:45.849Z,96.00
2022-10-31T04:48:13.720Z,96.50
2022-10-31T04:50:41.624Z,96.60
2022-10-31T04:53:09.498Z,96.80
2022-10-31T04:55:39.020Z,96.70
2022-10-31T04:58:06.900Z,96.50
2022-10-31T05:00:34.854Z,96.50
2022-10-31T05:03:03.112Z,96.00
2022-10-31T05:05:33.218Z,95.90
2022-10-31T05:08:01.426Z,96.30
2022-10-31T05:10:31.836Z,95.80
2022-10-31T05:13:03.054Z,94.20
2022-10-31T05:15:32.110Z,95.00
2022-10-31T05:18:00.614Z,96.50
2022-10-31T05:20:30.902Z,96.90
2022-10-31T05:22:59.825Z,96.60
2022-10-31T05:25:29.448Z,96.30
2022-10-31T05:27:58.678Z,96.70
2022-10-31T05:30:30.223Z,97.00
2022-10-31T05:32:58.832Z,97.10
2022-10-31T05:35:29.164Z,96.90
2022-10-31T05:37:58.509Z,95.60
2022-10-31T05:40:27.614Z,94.70
2022-10-31T05:42:57.774Z,96.20
2022-10-31T05:45:26.187Z,95.70
2022-10-31T05:47:57.163Z,95.40
2022-10-31T05:50:26.290Z,95.80
2022-10-31T05:52:58.284Z,96.10
2022-10-31T05:55:26.551Z,96.80
2022-10-31T05:57:54.501Z,97.00
2022-10-31T06:00:23.181Z,96.80
2022-10-31T06:02:51.381Z,96.70
2022-10-31T06:05:20.602Z,96.90
2022-10-31T06:07:48.417Z,96.40
2022-10-31T06:10:16.735Z,96.60
2022-10-31T06:12:44.593Z,96.90
2022-10-31T06:15:12.464Z,96.90
2022-10-31T06:17:40.473Z,96.60
2022-10-31T06:20:09.578Z,95.40
2022-10-31T06:22:38.922Z,95.50
2022-10-31T06:25:07.159Z,96.50
2022-10-31T06:27:35.109Z,97.10
2022-10-31T06:30:03.051Z,97.00
2022-10-31T06:32:30.923Z,96.70
2022-10-31T06:34:58.790Z,97.10
2022-10-31T06:37:26.687Z,97.20
2022-10-31T06:39:55.899Z,97.10
2022-10-31T06:42:23.750Z,97.10
2022-10-31T06:44:51.637Z,97.10
2022-10-31T06:47:19.525Z,97.20
2022-10-31T06:49:47.408Z,97.30
2022-10-31T06:52:15.269Z,97.30
2022-10-31T06:54:43.141Z,97.20
2022-10-31T06:57:12.379Z,97.30
2022-10-31T06:59:40.212Z,97.40
2022-10-31T07:02:10.944Z,96.40
2022-10-31T07:04:39.076Z,96.30
2022-10-31T07:07:06.915Z,96.40
2022-10-31T07:09:34.760Z,96.30
2022-10-31T07:12:02.642Z,96.30
2022-10-31T07:14:31.880Z,96.40
2022-10-31T07:16:59.765Z,96.50
2022-10-31T07:19:27.632Z,96.60
2022-10-31T07:21:55.474Z,96.60
2022-10-31T07:24:23.353Z,96.70
2022-10-31T07:26:51.643Z,96.70
2022-10-31T07:29:19.534Z,96.70
2022-10-31T07:31:49.322Z,96.80
2022-10-31T07:34:17.177Z,95.80
2022-10-31T07:36:45.055Z,96.80
2022-10-31T07:39:13.039Z,97.10
2022-10-31T07:41:40.900Z,97.20
2022-10-31T07:44:08.777Z,97.00
2022-10-31T07:46:36.638Z,96.90
2022-10-31T07:49:05.985Z,96.90
2022-10-31T07:51:33.840Z,96.90
2022-10-31T07:54:02.054Z,96.90
2022-10-31T07:56:29.941Z,96.90
2022-10-31T07:58:57.949Z,97.00
2022-10-31T08:01:25.871Z,97.00
2022-10-31T08:03:53.739Z,95.80
2022-10-31T08:06:22.928Z,95.90
2022-10-31T08:08:50.919Z,95.30
2022-10-31T08:11:18.797Z,94.90
2022-10-31T08:13:46.622Z,94.90
2022-10-31T08:16:14.560Z,95.20
2022-10-31T08:18:42.493Z,95.80
2022-10-31T08:21:11.337Z,95.50
2022-10-31T08:23:40.580Z,96.00
2022-10-31T08:26:08.452Z,96.30
2022-10-31T08:28:36.306Z,97.20
2022-10-31T08:31:04.241Z,97.90
2022-10-31T08:33:32.154Z,97.80
2022-10-31T08:36:00.189Z,97.50
2022-10-31T08:38:28.032Z,97.40
2022-10-31T08:40:57.264Z,97.30
2022-10-31T08:43:25.120Z,97.30
2022-10-31T08:45:55.289Z,97.20
2022-10-31T08:48:23.431Z,97.10
2022-10-31T08:50:51.279Z,97.20
2022-10-31T08:53:20.706Z,97.30
2022-10-31T08:55:49.257Z,97.30
2022-10-31T08:58:20.325Z,97.40
2022-10-31T09:00:49.443Z,97.40
2022-10-31T09:03:19.344Z,97.40
2022-10-31T09:05:47.642Z,97.30
2022-10-31T09:08:17.290Z,97.40
2022-10-31T09:10:46.150Z,97.40
2022-10-31T09:13:15.837Z,97.60
2022-10-31T09:15:46.717Z,98.10
2022-10-31T09:18:15.976Z,98.60
2022-10-31T09:20:45.120Z,98.50
2022-10-31T09:23:14.645Z,98.80
2022-10-31T09:25:47.695Z,99.00
2022-10-31T09:28:20.033Z,99.10
2022-10-31T09:30:51.420Z,99.10
2022-10-31T09:33:19.764Z,99.00
2022-10-31T09:35:47.719Z,99.10
2022-10-31T09:38:17.418Z,99.30
2022-10-31T09:40:47.081Z,99.50
2022-10-31T09:43:19.449Z,99.40
2022-10-31T09:46:00.601Z,99.70
2022-10-31T09:48:46.595Z,99.90
2022-10-31T09:51:18.709Z,99.90
2022-10-31T09:53:51.098Z,99.90
2022-10-31T09:56:21.868Z,99.90
2022-10-31T09:58:54.790Z,99.90
2022-10-31T10:01:33.420Z,99.90
2022-10-31T10:04:07.297Z,99.90
2022-10-31T10:06:38.698Z,99.90
2022-10-31T10:09:06.589Z,99.90
2022-10-31T10:11:50.272Z,99.90
2022-10-31T10:14:36.889Z,99.90
2022-10-31T10:17:23.271Z,99.90
2022-10-31T10:20:07.373Z,99.90
2022-10-31T10:22:41.657Z,99.90
2022-10-31T10:25:24.206Z,99.90
2022-10-31T10:28:02.596Z,99.90
2022-10-31T10:30:37.689Z,99.90
2022-10-31T10:33:12.751Z,99.90
2022-10-31T10:35:44.993Z,99.90
2022-10-31T10:38:19.261Z,99.90
2022-10-31T10:40:48.311Z,99.90
2022-10-31T10:43:26.623Z,99.90
2022-10-31T10:46:36.817Z,99.90
2022-10-31T10:49:17.354Z,99.90
2022-10-31T10:54:44.673Z,99.90
2022-10-31T10:57:32.133Z,99.90
2022-10-31T11:00:04.206Z,99.90
2022-10-31T11:02:34.713Z,99.90
2022-10-31T11:05:05.197Z,99.90
2022-10-31T11:07:40.736Z,99.90
2022-10-31T11:10:15.898Z,99.90
2022-10-31T11:12:45.071Z,99.90
2022-10-31T11:15:22.206Z,99.90
2022-10-31T11:17:51.882Z,99.90
2022-10-31T11:20:35.364Z,99.90
2022-10-31T11:23:18.294Z,99.90
2022-10-31T11:25:57.826Z,99.90
2022-10-31T11:28:26.197Z,99.90
2022-10-31T11:30:56.779Z,99.90
2022-10-31T11:33:31.587Z,99.90
2022-10-31T11:36:02.407Z,99.90
2022-10-31T11:38:36.879Z,99.90
2022-10-31T11:41:12.942Z,99.90
2022-10-31T11:43:47.208Z,99.90
2022-10-31T11:46:22.060Z,99.90
2022-10-31T11:48:51.343Z,99.90
2022-10-31T11:51:25.970Z,99.90
2022-10-31T11:53:58.407Z,99.90
2022-10-31T11:56:39.175Z,99.90
2022-10-31T11:59:16.910Z,99.90
2022-10-31T12:01:49.690Z,99.90
2022-10-31T12:04:18.845Z,99.90
2022-10-31T12:06:49.814Z,99.90
2022-10-31T12:09:23.393Z,99.90
2022-10-31T12:12:05.678Z,99.90
2022-10-31T12:14:40.943Z,99.90
2022-10-31T12:17:16.576Z,99.90
2022-10-31T12:19:53.873Z,99.90
2022-10-31T12:22:34.221Z,99.90
2022-10-31T12:25:17.492Z,99.90
2022-10-31T12:28:01.841Z,99.90
2022-10-31T12:30:41.868Z,99.90
2022-10-31T12:33:41.861Z,99.90
2022-10-31T12:36:23.136Z,99.90
2022-10-31T12:39:13.956Z,99.90
2022-10-31T12:41:51.713Z,99.90
2022-10-31T12:44:46.003Z,99.90
2022-10-31T12:47:35.225Z,99.90
2022-10-31T12:50:20.001Z,99.90
2022-10-31T12:53:00.293Z,99.90
2022-10-31T12:55:49.886Z,99.90
2022-10-31T12:58:23.754Z,99.90
2022-10-31T13:00:59.470Z,99.90
2022-10-31T13:03:35.309Z,99.90
2022-10-31T13:06:09.402Z,99.90
2022-10-31T13:08:42.613Z,99.90
2022-10-31T13:11:15.853Z,99.90
2022-10-31T13:13:56.339Z,99.90
2022-10-31T13:16:30.082Z,99.90
2022-10-31T13:19:01.961Z,99.90
2022-10-31T13:21:36.997Z,99.90
2022-10-31T13:24:12.974Z,99.90
2022-10-31T13:26:48.201Z,99.90
2022-10-31T13:29:23.155Z,99.90
2022-10-31T13:31:52.776Z,99.90
2022-10-31T13:34:27.862Z,99.90
2022-10-31T13:37:04.103Z,99.90
2022-10-31T13:39:42.670Z,99.90
2022-10-31T13:42:17.623Z,99.90
2022-10-31T13:44:45.500Z,99.90
2022-10-31T13:47:28.568Z,99.90
2022-10-31T13:50:07.307Z,99.90
2022-10-31T13:52:35.161Z,99.90
2022-10-31T13:55:03.012Z,99.90
2022-10-31T13:57:39.613Z,99.90
2022-10-31T14:00:23.662Z,99.90
2022-10-31T14:02:53.753Z,99.90
2022-10-31T14:05:27.201Z,99.90
2022-10-31T14:07:56.530Z,99.90
2022-10-31T14:10:28.786Z,99.90
2022-10-31T14:13:07.393Z,99.90
2022-10-31T14:15:37.196Z,99.90
2022-10-31T14:18:07.703Z,99.90
2022-10-31T14:20:40.548Z,99.90
2022-10-31T14:23:33.947Z,99.90
2022-10-31T14:26:18.150Z,99.90
2022-10-31T14:28:48.167Z,99.90
2022-10-31T14:31:36.614Z,99.90
2022-10-31T14:34:20.127Z,99.90
2022-10-31T14:37:01.263Z,99.90
2022-10-31T14:39:34.138Z,99.90
2022-10-31T14:42:16.824Z,99.90
2022-10-31T14:45:17.050Z,99.90
2022-10-31T14:47:54.074Z,99.90
2022-10-31T14:50:34.220Z,99.90
2022-10-31T14:53:06.130Z,99.90
2022-10-31T14:55:35.140Z,99.90
2022-10-31T14:58:06.183Z,99.90
2022-10-31T15:00:37.511Z,99.90
2022-10-31T15:03:14.006Z,99.90
2022-10-31T15:05:48.356Z,99.90
2022-10-31T15:08:29.564Z,99.90
2022-10-31T15:10:57.456Z,99.90
2022-10-31T15:13:25.440Z,99.90
2022-10-31T15:15:57.681Z,99.90
2022-10-31T15:18:27.452Z,99.90
2022-10-31T15:20:56.445Z,99.90
2022-10-31T15:23:26.967Z,99.90
2022-10-31T15:26:01.329Z,99.90
2022-10-31T15:28:29.751Z,99.90
2022-10-31T15:31:00.689Z,99.90
2022-10-31T15:33:36.768Z,99.90
2022-10-31T15:36:06.592Z,99.90
2022-10-31T15:38:34.760Z,99.90
2022-10-31T15:41:05.122Z,99.90
2022-10-31T15:43:41.219Z,99.90
2022-10-31T15:46:11.733Z,99.90
2022-10-31T15:48:41.506Z,99.90
2022-10-31T15:51:09.414Z,99.90
2022-10-31T15:53:43.807Z,99.90
2022-10-31T15:56:15.137Z,99.90
2022-10-31T15:58:46.177Z,99.80
2022-10-31T16:01:24.982Z,99.90
2022-10-31T16:04:06.063Z,99.80
2022-10-31T16:06:35.399Z,99.90
2022-10-31T16:09:04.034Z,99.90
2022-10-31T16:11:36.774Z,99.90
2022-10-31T16:14:08.224Z,99.90
2022-10-31T16:16:45.478Z,99.90
2022-10-31T16:19:21.132Z,99.90
2022-10-31T16:21:50.938Z,99.90
2022-10-31T16:24:22.266Z,99.90
2022-10-31T16:26:52.193Z,99.90
2022-10-31T16:29:35.296Z,99.90
2022-10-31T16:32:05.298Z,99.90
2022-10-31T16:34:33.162Z,99.90
2022-10-31T16:37:01.013Z,99.90
2022-10-31T16:39:28.850Z,99.90
2022-10-31T16:41:58.039Z,99.90
2022-10-31T16:44:27.680Z,99.90
2022-10-31T16:47:11.423Z,99.90
2022-10-31T16:49:39.324Z,99.90
2022-10-31T16:52:07.298Z,99.90
2022-10-31T16:54:35.237Z,99.90
2022-10-31T16:57:05.668Z,99.90
2022-10-31T16:59:34.783Z,99.90
2022-10-31T17:02:05.606Z,99.90
2022-10-31T17:04:33.558Z,99.90
2022-10-31T17:07:01.468Z,99.90
2022-10-31T17:09:29.334Z,99.90
2022-10-31T17:11:57.201Z,99.90
2022-10-31T17:14:25.097Z,99.90
2022-10-31T17:16:52.945Z,99.90
2022-10-31T17:19:22.244Z,99.90
2022-10-31T17:21:50.241Z,99.90
2022-10-31T17:24:18.110Z,99.90
2022-10-31T17:26:47.136Z,99.90
2022-10-31T17:29:15.153Z,99.90
2022-10-31T17:31:43.651Z,99.70
2022-10-31T17:34:11.559Z,99.00
2022-10-31T17:36:40.758Z,99.20
2022-10-31T17:39:09.613Z,99.60
2022-10-31T17:41:37.504Z,99.30
2022-10-31T17:44:05.762Z,99.20
2022-10-31T17:46:33.670Z,99.40
2022-10-31T17:49:01.708Z,99.30
2022-10-31T17:51:29.573Z,99.30
2022-10-31T17:53:58.914Z,99.30
2022-10-31T17:56:26.769Z,98.40
2022-10-31T17:58:57.011Z,99.00
2022-10-31T18:01:25.570Z,99.10
2022-10-31T18:03:53.565Z,99.20
2022-10-31T18:06:21.429Z,99.00
2022-10-31T18:08:49.285Z,99.00
2022-10-31T18:11:21.716Z,99.00
2022-10-31T18:13:54.912Z,98.80
2022-10-31T18:16:23.119Z,98.90
2022-10-31T18:18:52.876Z,98.70
2022-10-31T18:21:20.775Z,98.80
2022-10-31T18:23:48.851Z,98.80
2022-10-31T18:26:18.071Z,98.80
2022-10-31T18:28:45.914Z,98.80
2022-10-31T18:31:13.795Z,98.80
2022-10-31T18:33:42.423Z,98.80
2022-10-31T18:36:11.825Z,98.80
2022-10-31T18:38:41.190Z,98.70
2022-10-31T18:41:10.106Z,98.60
2022-10-31T18:43:39.388Z,98.50
2022-10-31T18:46:10.260Z,98.30
2022-10-31T18:48:38.558Z,98.20
2022-10-31T18:51:08.789Z,98.20
2022-10-31T18:53:37.266Z,98.30
2022-10-31T18:56:08.835Z,98.30
2022-10-31T18:58:36.727Z,98.30
2022-10-31T19:01:08.909Z,98.30
2022-10-31T19:03:37.410Z,98.30
2022-10-31T19:06:05.990Z,98.20
2022-10-31T19:08:34.925Z,98.40
2022-10-31T19:11:07.017Z,98.20
2022-10-31T19:13:35.813Z,98.40
2022-10-31T19:16:10.548Z,98.20
2022-10-31T19:18:39.146Z,98.60
2022-10-31T19:21:07.851Z,98.40
2022-10-31T19:23:35.968Z,98.30
2022-10-31T19:26:04.734Z,98.30
2022-10-31T19:28:33.661Z,98.30
2022-10-31T19:31:01.747Z,98.30
2022-10-31T19:33:34.984Z,98.20
2022-10-31T19:36:08.179Z,98.10
2022-10-31T19:38:36.815Z,98.10
2022-10-31T19:41:06.936Z,98.00
2022-10-31T19:43:34.893Z,98.00
2022-10-31T19:46:04.161Z,98.00
2022-10-31T19:48:36.340Z,98.10
2022-10-31T19:51:06.176Z,98.10
2022-10-31T19:53:34.453Z,98.10
2022-10-31T19:56:02.645Z,98.10
2022-10-31T19:58:32.612Z,98.10
2022-10-31T20:01:00.520Z,98.00
2022-10-31T20:03:28.378Z,98.00
2022-10-31T20:05:57.610Z,98.00
2022-10-31T20:08:25.463Z,97.90
2022-10-31T20:10:57.177Z,97.90
2022-10-31T20:13:25.765Z,97.90
2022-10-31T20:15:53.852Z,97.80
2022-10-31T20:18:24.667Z,98.10
2022-10-31T20:20:53.274Z,98.00
2022-10-31T20:23:22.530Z,97.70
2022-10-31T20:25:50.851Z,97.80
2022-10-31T20:28:19.219Z,97.90
2022-10-31T20:30:47.101Z,98.00
2022-10-31T20:33:14.967Z,97.90
2022-10-31T20:35:43.299Z,97.80
2022-10-31T20:38:11.322Z,97.80
2022-10-31T20:40:40.845Z,97.80
2022-10-31T20:43:08.766Z,97.80
2022-10-31T20:45:36.935Z,97.80
2022-10-31T20:48:05.326Z,97.90
2022-10-31T20:50:33.178Z,97.90
2022-10-31T20:53:02.487Z,97.90
2022-10-31T20:55:30.545Z,97.90
2022-10-31T20:58:00.138Z,98.00
2022-10-31T21:00:28.019Z,98.00
2022-10-31T21:02:56.003Z,98.00
2022-10-31T21:05:23.935Z,97.40
2022-10-31T21:10:24.585Z,96.80
2022-10-31T21:12:52.445Z,97.70
2022-10-31T21:15:21.644Z,97.60
2022-10-31T21:17:49.527Z,97.90
2022-10-31T21:20:17.493Z,98.00
2022-10-31T21:22:45.329Z,97.90
2022-10-31T21:25:13.339Z,98.10
2022-10-31T21:27:41.220Z,98.00
2022-10-31T21:30:09.772Z,96.00
2022-10-31T21:32:38.953Z,97.70
2022-10-31T21:35:07.642Z,97.80
2022-10-31T21:37:35.544Z,97.40
2022-10-31T21:40:03.800Z,95.20
2022-10-31T21:42:31.688Z,97.40
2022-10-31T21:44:59.556Z,97.50
2022-10-31T21:47:27.444Z,97.50
2022-10-31T21:49:56.703Z,95.60
2022-10-31T21:52:24.561Z,95.10
2022-10-31T21:54:51.442Z,96.10
2022-10-31T21:57:19.481Z,97.00
2022-10-31T21:59:48.434Z,97.00
2022-10-31T22:02:16.345Z,97.20
2022-10-31T22:04:45.497Z,96.90
2022-10-31T22:07:14.834Z,96.00
2022-10-31T22:09:47.123Z,96.10
2022-10-31T22:12:15.271Z,95.10
2022-10-31T22:17:15.983Z,95.20
2022-10-31T22:19:43.814Z,95.50
2022-10-31T22:22:13.972Z,95.60
2022-10-31T22:24:41.857Z,96.90
2022-10-31T22:27:09.709Z,97.50
2022-10-31T22:29:37.676Z,96.50
2022-10-31T22:32:05.868Z,97.30
2022-10-31T22:34:33.711Z,97.40
2022-10-31T22:37:02.051Z,97.40
2022-10-31T22:39:31.244Z,97.90
2022-10-31T22:41:59.097Z,97.60
2022-10-31T22:44:26.964Z,97.20
2022-10-31T22:46:54.853Z,97.10
2022-10-31T22:49:22.724Z,97.30
2022-10-31T22:51:52.898Z,95.70
2022-10-31T22:54:20.760Z,96.50
2022-10-31T22:56:50.054Z,96.90
2022-10-31T22:59:18.448Z,96.90
2022-10-31T23:01:46.914Z,95.40
2022-10-31T23:04:14.926Z,96.70
2022-10-31T23:06:43.030Z,96.20
2022-10-31T23:09:15.457Z,96.60
2022-10-31T23:11:43.877Z,96.50
2022-10-31T23:14:16.394Z,96.40
2022-10-31T23:16:46.414Z,96.30
2022-10-31T23:19:16.611Z,96.20
2022-10-31T23:21:59.765Z,96.10
2022-10-31T23:24:30.903Z,96.30
2022-10-31T23:27:08.356Z,96.10
2022-10-31T23:29:43.432Z,96.50
2022-10-31T23:32:15.613Z,95.90
2022-10-31T23:34:43.552Z,95.30
2022-10-31T23:37:12.026Z,96.20
2022-10-31T23:39:39.917Z,96.00
2022-10-31T23:42:08.293Z,96.00
2022-10-31T23:44:37.617Z,96.20
2022-10-31T23:47:05.979Z,96.30
2022-10-31T23:49:33.853Z,96.20
2022-10-31T23:52:02.186Z,96.20
2022-10-31T23:54:30.274Z,96.10
2022-10-31T23:56:59.062Z,95.90
2022-10-31T23:59:28.914Z,95.90
